Estación Meteorológica Peña el Pijo (Robertgarden) [ 12/16/19 00:35:03 CET ]

Fecha Hora Presion(HPa) Temp (°C) Humedad % Rocio (°C) Viento ( m/s) Direccion Lluvia 1Hora(mm) Lluvia 24H(mm) LLuvia Total(mm)
2019-Feb-28 01:01:45 1017.800 5.3 54 -3.3         183.37
2019-Feb-28 02:02:07 1017.600 4.4 55 -3.9         183.37
2019-Feb-28 03:02:13 1017.000 3.5 57 -4.3         183.37
2019-Feb-28 04:02:27 1016.900 2.6 60 -4.4         183.37
2019-Feb-28 05:02:16 1016.600 2.4 61 -4.3         183.37
2019-Feb-28 06:03:13 1016.700 2.1 62 -4.4         183.37
2019-Feb-28 07:01:39 1017.000 2.1 64 -4.0         183.37
2019-Feb-28 08:01:35 1017.300 1.6 65 -4.3         183.37
2019-Feb-28 09:01:33 1017.300 4.3 67 -1.3         183.37
2019-Feb-28 10:01:47 1017.200 13.0 45 1.2         183.37
2019-Feb-28 11:01:35 1017.100 18.6 32 1.4         183.37
2019-Feb-28 12:01:43 1016.800 21.4 24 -0.2         183.37
2019-Feb-28 13:01:46 1016.200 22.3 21 -1.2         183.37
2019-Feb-28 14:01:10 1015.300 22.7 15 -5.9 1.1 NW     183.37
2019-Feb-28 15:01:48 1015.000 23.2 18 -2.8         183.37
2019-Feb-28 16:01:56 1014.700 23.6 18 -2.5         183.37
2019-Feb-28 17:01:50 1014.800 21.8 21 -1.6         183.37
2019-Feb-28 18:01:50 1014.500 20.3 24 -1.1         183.37
2019-Feb-28 19:01:29 1015.000 16.8 28 -2.0         183.37
2019-Feb-28 20:01:47 1015.800 12.7 37 -1.7         183.37
2019-Feb-28 21:01:54 1015.900 10.1 42 -2.3         183.37
2019-Feb-28 22:01:57 1016.100 9.5 45 -1.9         183.37
2019-Feb-28 23:01:43 1016.100 8.1 49 -2.0         183.37

Temperatura Máxima:23°    Temperatura Mínima:
Presión Máxima:1017.800 Hpa    Presión Mínima:1014.500 Hpa


Volver